Time;durP1;ratioP1;P1;durP2;ratioP2;P2;SDS_P1;SDS_P2;PMS_P1;PMS_P2;Temp;Humidity;BMP_temperature;BMP_pressure;BME280_temperature;BME280_humidity;BME280_pressure;Samples;Min_cycle;Max_cycle;Signal;HPM_P1;HPM_P2
2022/09/01 00:02:14;;;;;;;;;16.67;16.67;;;;;21.69;63.81;100865.53;5023483;28;45387;-80
2022/09/01 00:04:43;;;;;;;;;21.67;20.00;;;;;21.73;63.13;100869.00;5023213;28;45405;-81
2022/09/01 00:07:17;;;;;;;;;21.00;19.33;;;;;21.71;63.49;100862.75;5020365;28;45497;-80
2022/09/01 00:09:42;;;;;;;;;22.67;20.33;;;;;21.67;64.38;100861.97;5020434;28;45468;-80
2022/09/01 00:12:08;;;;;;;;;24.00;24.00;;;;;21.65;64.10;100869.22;5021140;28;44841;-79
2022/09/01 00:14:37;;;;;;;;;24.67;23.67;;;;;21.64;64.38;100866.59;5021631;28;45338;-80
2022/09/01 00:17:06;;;;;;;;;23.33;20.67;;;;;21.59;63.96;100869.41;5020611;28;45463;-81
2022/09/01 00:19:34;;;;;;;;;24.33;22.67;;;;;21.57;64.12;100863.16;5022573;28;45450;-80
2022/09/01 00:22:00;;;;;;;;;21.00;21.00;;;;;21.51;65.24;100857.94;5022336;28;45367;-81
2022/09/01 00:24:27;;;;;;;;;21.33;21.33;;;;;21.50;64.44;100856.16;5004479;28;47238;-81
2022/09/01 00:26:54;;;;;;;;;21.00;19.33;;;;;21.41;64.69;100842.88;5021490;28;45537;-81
2022/09/01 00:29:19;;;;;;;;;24.33;22.00;;;;;21.45;64.40;100855.41;5023689;28;44812;-81
2022/09/01 00:31:45;;;;;;;;;20.00;20.00;;;;;21.38;64.63;100855.53;5022237;28;45495;-81
2022/09/01 00:34:11;;;;;;;;;24.67;20.33;;;;;21.39;64.88;100864.56;5020304;28;48269;-80
2022/09/01 00:36:37;;;;;;;;;19.67;19.00;;;;;21.37;64.93;100861.03;5021367;28;45881;-80
2022/09/01 00:39:04;;;;;;;;;19.00;19.00;;;;;21.33;64.77;100857.53;5020754;28;45358;-81
2022/09/01 00:41:32;;;;;;;;;20.33;19.67;;;;;21.35;65.28;100858.38;5021109;28;45402;-81
2022/09/01 00:44:04;;;;;;;;;22.00;19.00;;;;;21.36;65.92;100862.81;5022198;28;46701;-81
2022/09/01 00:46:51;;;;;;;;;21.67;20.33;;;;;21.35;65.35;100863.78;5022042;28;44818;-81
2022/09/01 00:49:25;;;;;;;;;18.00;16.67;;;;;21.35;65.92;100855.66;5021136;28;45404;-81
2022/09/01 00:51:54;;;;;;;;;21.33;19.33;;;;;21.30;65.43;100849.47;5022464;28;45366;-81
2022/09/01 00:54:26;;;;;;;;;19.00;18.00;;;;;21.31;65.64;100862.09;5021846;28;45478;-81
2022/09/01 00:56:53;;;;;;;;;20.00;18.33;;;;;21.26;65.70;100847.78;5021294;28;45348;-81
2022/09/01 00:59:21;;;;;;;;;24.67;20.67;;;;;21.28;65.34;100850.47;5021877;28;45529;-81
2022/09/01 01:01:47;;;;;;;;;20.67;20.33;;;;;21.24;66.17;100841.53;5021094;28;45448;-81
2022/09/01 01:04:15;;;;;;;;;18.00;18.00;;;;;21.24;65.70;100846.94;5020534;28;47390;-81
2022/09/01 01:06:57;;;;;;;;;22.00;21.67;;;;;21.26;65.70;100845.09;5020760;28;45511;-81
2022/09/01 01:09:25;;;;;;;;;15.00;15.00;;;;;21.22;65.96;100846.09;5020129;28;45523;-81
2022/09/01 01:11:52;;;;;;;;;15.67;15.67;;;;;21.22;65.99;100842.53;5022660;28;45347;-81
2022/09/01 01:14:19;;;;;;;;;19.00;19.00;;;;;21.20;66.11;100837.16;5021649;28;45432;-81
2022/09/01 01:16:50;;;;;;;;;20.33;18.67;;;;;21.18;66.25;100839.00;5019836;28;45465;-81
2022/09/01 01:25:24;;;;;;;;;16.33;15.67;;;;;21.07;66.35;100835.75;4981258;28;45438;-81
2022/09/01 01:27:50;;;;;;;;;17.00;17.00;;;;;21.07;66.28;100839.31;4982514;28;44809;-80
2022/09/01 01:30:17;;;;;;;;;20.33;19.00;;;;;21.08;66.95;100837.50;4981904;28;44759;-81
2022/09/01 01:32:44;;;;;;;;;17.67;17.67;;;;;21.08;66.88;100838.38;4981692;28;45418;-80
2022/09/01 01:35:13;;;;;;;;;18.33;18.33;;;;;21.08;66.87;100845.59;4981323;28;45394;-80
2022/09/01 01:37:47;;;;;;;;;18.67;15.33;;;;;21.02;67.02;100849.34;4982581;28;45525;-80
2022/09/01 01:40:14;;;;;;;;;17.33;16.33;;;;;20.97;66.81;100837.81;4980208;28;45472;-80
2022/09/01 01:42:47;;;;;;;;;17.00;16.00;;;;;20.97;66.47;100843.22;4980655;28;45536;-80
2022/09/01 01:45:19;;;;;;;;;16.33;14.33;;;;;20.92;67.35;100837.91;4978743;28;47161;-80
2022/09/01 01:47:52;;;;;;;;;16.00;15.00;;;;;20.93;66.99;100841.53;4979850;28;45590;-80
2022/09/01 01:50:24;;;;;;;;;14.33;14.33;;;;;20.88;67.90;100836.22;4981420;28;45383;-80
2022/09/01 01:52:49;;;;;;;;;17.00;15.33;;;;;20.89;67.52;100846.13;4995389;28;45411;-80
2022/09/01 01:55:18;;;;;;;;;19.67;19.00;;;;;20.87;67.78;100834.47;4979951;28;46061;-80
2022/09/01 01:57:50;;;;;;;;;17.33;14.67;;;;;20.91;67.55;100843.38;4979384;28;45420;-81
2022/09/01 02:00:19;;;;;;;;;17.33;15.67;;;;;20.91;68.42;100835.28;4980678;28;45395;-81
2022/09/01 02:02:51;;;;;;;;;18.00;15.33;;;;;20.87;68.23;100834.47;4979415;28;45964;-81
2022/09/01 02:05:23;;;;;;;;;15.33;15.00;;;;;20.92;67.88;100848.72;4998666;28;45675;-81
2022/09/01 02:07:54;;;;;;;;;16.00;15.00;;;;;20.87;67.77;100830.88;5022053;28;45398;-81
2022/09/01 02:10:22;;;;;;;;;14.33;12.67;;;;;20.87;68.46;100842.56;5040424;28;45793;-81
2022/09/01 02:12:48;;;;;;;;;14.33;14.33;;;;;20.88;68.29;100840.75;5022832;28;45496;-81
2022/09/01 02:15:14;;;;;;;;;16.67;16.00;;;;;20.87;67.97;100845.28;5040435;28;45493;-81
2022/09/01 02:17:41;;;;;;;;;15.00;14.67;;;;;20.90;68.60;100853.28;5040360;28;45389;-81
2022/09/01 02:20:09;;;;;;;;;19.67;18.00;;;;;20.85;68.61;100841.72;5039460;28;45401;-81
2022/09/01 02:22:36;;;;;;;;;14.00;14.00;;;;;20.88;68.56;100859.66;5039924;28;45436;-81
2022/09/01 02:25:04;;;;;;;;;17.00;17.00;;;;;20.86;68.51;100859.69;5040532;28;45532;-81
2022/09/01 02:27:32;;;;;;;;;16.67;15.67;;;;;20.85;68.99;100857.06;5023003;28;45742;-81
2022/09/01 02:30:00;;;;;;;;;16.00;15.67;;;;;20.87;68.77;100853.38;5022223;28;45361;-81
2022/09/01 02:32:26;;;;;;;;;16.00;15.00;;;;;20.82;68.94;100846.31;5023553;28;45447;-81
2022/09/01 02:35:00;;;;;;;;;15.67;14.67;;;;;20.82;68.66;100849.91;5022577;28;48833;-81
2022/09/01 02:37:25;;;;;;;;;17.33;15.00;;;;;20.79;68.99;100852.69;5022670;28;45516;-81
2022/09/01 02:39:56;;;;;;;;;15.67;15.67;;;;;20.74;69.24;100855.53;5040032;28;45457;-81
2022/09/01 02:42:25;;;;;;;;;13.33;13.33;;;;;20.72;69.34;100861.88;5040030;28;45423;-81
2022/09/01 02:44:54;;;;;;;;;14.67;13.00;;;;;20.68;69.23;100854.78;5022127;28;47251;-81
2022/09/01 02:47:22;;;;;;;;;14.67;12.67;;;;;20.67;69.67;100844.91;5024127;28;45406;-81
2022/09/01 02:49:49;;;;;;;;;14.00;13.00;;;;;20.68;69.63;100854.78;5044148;28;45329;-80
2022/09/01 02:52:16;;;;;;;;;14.00;12.33;;;;;20.65;70.31;100849.47;5025797;28;44911;-81
2022/09/01 02:54:44;;;;;;;;;12.67;12.67;;;;;20.59;69.96;100850.50;5026019;28;48489;-81
2022/09/01 02:57:11;;;;;;;;;15.33;13.00;;;;;20.52;70.77;100838.94;5043438;28;45223;-81
2022/09/01 02:59:37;;;;;;;;;14.67;14.67;;;;;20.53;70.54;100846.09;5043882;28;45372;-81
2022/09/01 03:02:03;;;;;;;;;13.00;13.00;;;;;20.54;70.05;100845.19;5043803;28;45399;-81
2022/09/01 03:04:35;;;;;;;;;15.00;14.00;;;;;20.53;70.77;100840.72;5043061;28;45368;-80
2022/09/01 03:07:05;;;;;;;;;15.33;15.33;;;;;20.54;70.66;100845.19;5021424;28;45504;-81
2022/09/01 03:09:33;;;;;;;;;17.67;16.00;;;;;20.53;70.20;100846.09;5022638;28;45451;-81
2022/09/01 03:11:59;;;;;;;;;14.00;14.00;;;;;20.49;70.33;100838.13;5005954;28;44942;-81
2022/09/01 03:14:25;;;;;;;;;12.67;12.67;;;;;20.51;71.03;100839.88;5023535;28;46128;-81
2022/09/01 03:16:51;;;;;;;;;13.33;13.33;;;;;20.46;70.61;100836.41;5022928;28;45543;-81
2022/09/01 03:19:17;;;;;;;;;17.33;14.67;;;;;20.43;71.16;100841.00;5021198;28;45304;-81
2022/09/01 03:21:45;;;;;;;;;13.00;13.00;;;;;20.39;71.45;100832.06;5021211;28;45480;-81
2022/09/01 03:24:15;;;;;;;;;14.00;13.00;;;;;20.41;71.31;100838.31;5021193;28;47332;-81
2022/09/01 03:26:42;;;;;;;;;15.00;15.00;;;;;20.39;71.34;100830.25;5019758;28;45509;-81
2022/09/01 03:29:08;;;;;;;;;16.67;15.67;;;;;20.36;71.65;100832.16;5003694;28;44743;-81
2022/09/01 03:31:35;;;;;;;;;13.67;13.33;;;;;20.37;71.91;100828.53;5002962;28;44830;-80
2022/09/01 03:34:02;;;;;;;;;16.33;14.00;;;;;20.41;72.05;100832.03;5003081;28;45454;-80
2022/09/01 03:36:28;;;;;;;;;15.00;15.00;;;;;20.38;71.99;100825.78;5002779;28;45474;-80
2022/09/01 03:38:54;;;;;;;;;13.00;12.00;;;;;20.41;71.94;100824.81;5017688;28;45333;-80
2022/09/01 03:41:27;;;;;;;;;15.00;13.00;;;;;20.41;71.98;100823.94;5002120;28;45407;-80
2022/09/01 03:43:56;;;;;;;;;13.33;13.33;;;;;20.38;72.02;100822.22;5017956;28;46911;-80
2022/09/01 03:46:23;;;;;;;;;12.67;12.67;;;;;20.36;72.24;100827.63;5017578;28;45542;-80
2022/09/01 03:48:54;;;;;;;;;15.33;13.00;;;;;20.38;72.34;100825.78;5002242;28;45454;-81
2022/09/01 03:51:21;;;;;;;;;14.67;13.67;;;;;20.34;72.58;100824.09;5000522;28;45462;-80
2022/09/01 03:53:48;;;;;;;;;14.33;13.00;;;;;20.31;72.36;100815.16;4999981;28;46400;-79
2022/09/01 03:56:14;;;;;;;;;17.33;15.33;;;;;20.31;72.84;100829.56;5001943;28;45296;-80
2022/09/01 03:58:45;;;;;;;;;13.00;13.00;;;;;20.29;72.89;100826.00;5018261;28;45408;-80
2022/09/01 04:01:12;;;;;;;;;13.33;13.33;;;;;20.26;73.54;100817.06;5021728;28;45412;-80
2022/09/01 04:03:39;;;;;;;;;14.00;14.00;;;;;20.25;73.67;100820.72;5020342;28;47424;-80
2022/09/01 04:06:07;;;;;;;;;14.67;13.33;;;;;20.22;73.68;100815.38;5027239;28;44834;-80
2022/09/01 04:08:33;;;;;;;;;14.67;13.00;;;;;20.21;73.78;100813.63;5025505;28;45436;-80
2022/09/01 04:11:09;;;;;;;;;17.33;15.00;;;;;20.17;73.86;100810.09;5042624;28;45410;-80
2022/09/01 04:13:37;;;;;;;;;16.33;14.33;;;;;20.16;74.00;100811.03;5024311;28;48053;-80
2022/09/01 04:16:09;;;;;;;;;16.67;16.67;;;;;20.17;74.14;100805.59;5043443;28;45365;-80
2022/09/01 04:18:35;;;;;;;;;14.33;12.33;;;;;20.13;74.51;100798.47;5042341;28;45470;-80
2022/09/01 04:21:00;;;;;;;;;13.67;13.67;;;;;20.12;74.49;100806.66;5023590;28;45415;-80
2022/09/01 04:23:35;;;;;;;;;14.00;14.00;;;;;20.15;74.67;100812.84;5022572;28;47024;-80
2022/09/01 04:26:13;;;;;;;;;16.00;16.00;;;;;20.14;75.27;100808.38;5040919;28;45459;-80
2022/09/01 04:28:49;;;;;;;;;11.67;10.67;;;;;20.13;75.34;100808.41;5039595;28;45455;-80
2022/09/01 04:31:19;;;;;;;;;15.00;14.33;;;;;20.12;74.94;100812.94;5041061;28;45439;-80
2022/09/01 04:33:53;;;;;;;;;15.67;15.67;;;;;20.12;75.56;100812.03;5041126;28;45300;-80
2022/09/01 04:36:22;;;;;;;;;16.33;15.00;;;;;20.11;75.32;100808.44;5039442;28;45444;-80
2022/09/01 04:38:59;;;;;;;;;13.00;13.00;;;;;20.10;75.36;100801.28;5022869;28;45507;-80
2022/09/01 04:41:29;;;;;;;;;18.00;17.00;;;;;20.07;75.73;100792.34;5022353;28;45529;-80
2022/09/01 04:43:56;;;;;;;;;14.00;14.00;;;;;20.05;75.54;100789.69;5023011;28;47223;-80
2022/09/01 04:46:24;;;;;;;;;15.33;15.33;;;;;20.11;75.78;100791.34;5022669;28;45446;-80
2022/09/01 04:48:52;;;;;;;;;16.00;15.00;;;;;20.09;75.72;100791.38;5041300;28;44805;-80
2022/09/01 04:51:18;;;;;;;;;17.33;15.67;;;;;20.13;75.81;100798.47;5023574;28;45482;-80
2022/09/01 04:53:47;;;;;;;;;13.00;12.33;;;;;20.10;76.21;100803.09;5021275;28;46996;-80
2022/09/01 04:56:14;;;;;;;;;14.67;14.67;;;;;20.07;76.08;100797.75;5039726;28;45385;-80
2022/09/01 04:58:39;;;;;;;;;15.67;15.67;;;;;20.07;76.05;100805.84;5040889;28;45691;-80
2022/09/01 05:01:22;;;;;;;;;15.33;14.33;;;;;20.05;76.47;100800.47;5040844;28;45454;-80
2022/09/01 05:03:55;;;;;;;;;18.00;18.00;;;;;20.04;76.87;100798.72;5021377;28;45504;-80
2022/09/01 05:06:22;;;;;;;;;15.33;14.67;;;;;20.05;76.74;100797.78;5018854;28;45364;-80
2022/09/01 05:08:48;;;;;;;;;16.33;13.67;;;;;20.05;77.01;100795.09;5019502;28;45373;-81
2022/09/01 05:11:17;;;;;;;;;16.33;14.33;;;;;20.12;76.75;100809.34;5019591;28;45399;-80
2022/09/01 05:13:44;;;;;;;;;15.00;15.00;;;;;20.12;77.22;100806.66;5020350;28;46189;-81
2022/09/01 05:16:13;;;;;;;;;19.00;16.00;;;;;20.06;77.02;100802.28;5019875;28;44784;-81
2022/09/01 05:18:44;;;;;;;;;15.33;15.33;;;;;20.07;77.92;100809.44;5019945;28;45444;-80
2022/09/01 05:21:10;;;;;;;;;18.00;16.67;;;;;20.07;77.56;100805.84;4992219;28;45572;-80
2022/09/01 05:23:39;;;;;;;;;17.67;16.33;;;;;20.09;77.91;100809.41;5015683;28;47683;-80
2022/09/01 05:26:15;;;;;;;;;17.33;17.00;;;;;20.09;77.94;100810.28;5000100;28;45527;-81
2022/09/01 05:28:53;;;;;;;;;15.67;15.67;;;;;20.11;77.95;100805.72;4999842;28;45438;-80
2022/09/01 05:31:19;;;;;;;;;12.67;12.00;;;;;20.13;78.17;100803.88;5016680;28;44975;-80
2022/09/01 05:33:47;;;;;;;;;16.67;15.67;;;;;20.22;77.80;100804.59;5000216;28;45376;-80
2022/09/01 05:36:18;;;;;;;;;18.00;18.00;;;;;20.26;78.31;100811.69;4999760;28;45406;-80
2022/09/01 05:38:46;;;;;;;;;14.00;13.33;;;;;20.31;77.85;100812.47;4999927;28;45450;-80
2022/09/01 05:41:14;;;;;;;;;17.00;16.67;;;;;20.39;77.81;100810.47;5015993;28;45496;-80
2022/09/01 05:43:45;;;;;;;;;17.00;15.00;;;;;20.47;77.52;100812.97;4999625;28;45475;-80
2022/09/01 05:46:11;;;;;;;;;14.67;14.67;;;;;20.52;77.71;100809.22;4999742;28;45423;-80
2022/09/01 05:48:38;;;;;;;;;18.00;17.00;;;;;20.62;77.10;100811.72;5016659;28;45800;-81
2022/09/01 05:51:05;;;;;;;;;17.00;15.00;;;;;20.61;77.09;100801.84;5000781;28;45519;-80
2022/09/01 05:53:32;;;;;;;;;18.00;17.00;;;;;20.63;76.96;100800.88;5001510;28;45452;-80
2022/09/01 05:56:05;;;;;;;;;17.67;17.00;;;;;20.70;76.76;100804.28;5000812;28;44846;-80
2022/09/01 05:58:33;;;;;;;;;18.33;15.33;;;;;20.79;76.51;100804.03;5020240;28;45434;-80
2022/09/01 06:00:59;;;;;;;;;15.00;15.00;;;;;20.91;76.26;100814.53;5005009;28;45403;-80
2022/09/01 06:03:26;;;;;;;;;15.00;15.00;;;;;20.98;75.83;100799.88;5020433;28;47754;-80
2022/09/01 06:05:54;;;;;;;;;16.67;16.67;;;;;21.12;75.02;100809.44;5021886;28;45488;-80
2022/09/01 06:08:23;;;;;;;;;19.33;15.67;;;;;21.13;75.61;100804.00;5040099;28;45510;-80
2022/09/01 06:10:51;;;;;;;;;19.00;18.00;;;;;21.14;74.79;100804.88;5039603;28;45005;-80
2022/09/01 06:13:20;;;;;;;;;19.67;17.67;;;;;21.26;74.69;100809.03;5038979;28;47108;-80
2022/09/01 06:15:47;;;;;;;;;18.67;17.33;;;;;21.40;73.97;100812.22;5041265;28;45504;-80
2022/09/01 06:18:13;;;;;;;;;20.00;20.00;;;;;21.54;73.89;100809.13;5039551;28;45461;-84
2022/09/01 06:20:41;;;;;;;;;19.67;17.33;;;;;21.66;73.34;100818.72;5034707;28;44824;-83
2022/09/01 06:23:07;;;;;;;;;16.67;16.67;;;;;21.76;72.75;100809.38;5009901;28;47231;-84
2022/09/01 06:25:36;;;;;;;;;18.33;18.33;;;;;21.84;72.55;100812.72;5025747;28;45430;-83
2022/09/01 06:28:03;;;;;;;;;19.00;18.67;;;;;21.91;72.28;100808.88;5008277;28;45395;-83
2022/09/01 06:30:29;;;;;;;;;19.67;18.33;;;;;21.88;71.82;100805.41;5027385;28;45490;-84
2022/09/01 06:32:55;;;;;;;;;19.00;19.00;;;;;21.94;71.74;100807.91;5026615;28;45389;-84
2022/09/01 06:36:08;;;;;;;;;21.33;18.33;;;;;21.96;71.59;100809.63;5009999;28;45772;-83
2022/09/01 06:38:35;;;;;;;;;20.67;19.33;;;;;22.02;71.65;100816.66;5039534;28;44869;-83
2022/09/01 06:41:09;;;;;;;;;11.33;11.33;;;;;22.05;70.87;100811.13;5019285;28;45131;-83
2022/09/01 06:43:35;;;;;;;;;19.00;18.00;;;;;22.04;71.18;100803.97;5041240;28;45377;-83
2022/09/01 06:46:04;;;;;;;;;14.00;13.33;;;;;22.08;70.40;100800.22;5030223;28;45522;-83
2022/09/01 06:48:31;;;;;;;;;19.33;19.33;;;;;22.20;70.45;100800.72;5022250;28;45507;-83
2022/09/01 06:51:03;;;;;;;;;20.67;19.67;;;;;22.21;70.06;100800.69;5019545;28;45462;-83
2022/09/01 06:53:32;;;;;;;;;20.00;20.00;;;;;22.30;70.14;100807.66;5036806;28;45082;-85
2022/09/01 06:55:57;;;;;;;;;21.00;21.00;;;;;22.39;69.96;100814.59;5028619;28;45833;-83
2022/09/01 06:58:24;;;;;;;;;22.67;20.67;;;;;22.45;69.31;100803.56;5020708;28;44827;-83
2022/09/01 07:00:51;;;;;;;;;21.00;19.33;;;;;22.59;69.36;100812.09;5018768;28;45367;-84
2022/09/01 07:03:17;;;;;;;;;25.67;23.00;;;;;22.63;68.68;100808.34;5020462;28;46949;-84
2022/09/01 07:05:50;;;;;;;;;21.33;19.33;;;;;22.75;68.17;100807.91;5020637;28;45395;-81
2022/09/01 07:08:20;;;;;;;;;22.67;22.33;;;;;22.84;67.77;100806.69;4994996;28;45352;-82
2022/09/01 07:10:49;;;;;;;;;22.33;19.33;;;;;22.81;68.08;100806.81;4994256;28;45431;-81
2022/09/01 07:13:24;;;;;;;;;19.00;18.00;;;;;22.93;68.01;100810.91;4993235;28;47040;-82
2022/09/01 07:15:51;;;;;;;;;20.67;20.33;;;;;23.07;67.55;100813.16;4996077;28;45478;-82
2022/09/01 07:18:20;;;;;;;;;24.00;21.33;;;;;23.17;67.46;100801.00;4994657;28;45540;-83
2022/09/01 07:20:47;;;;;;;;;21.00;18.33;;;;;23.14;66.76;100803.81;4985925;28;45519;-82
2022/09/01 07:23:15;;;;;;;;;18.67;18.67;;;;;23.08;66.97;100814.91;4987804;28;46190;-82
2022/09/01 07:25:44;;;;;;;;;15.00;14.00;;;;;22.98;66.39;100808.88;4988501;28;45434;-82
2022/09/01 07:28:15;;;;;;;;;15.33;15.33;;;;;22.90;66.75;100811.88;5005159;28;45433;-81
2022/09/01 07:30:47;;;;;;;;;18.00;15.33;;;;;22.79;66.98;100814.09;5007079;28;44770;-83
2022/09/01 07:33:15;;;;;;;;;15.33;15.33;;;;;22.76;67.96;100825.03;5006723;28;47260;-82
2022/09/01 07:35:41;;;;;;;;;16.00;15.33;;;;;22.73;68.15;100817.91;5007573;28;45312;-82
2022/09/01 07:38:08;;;;;;;;;15.00;15.00;;;;;22.81;67.94;100809.50;5009029;28;44779;-83
2022/09/01 07:40:37;;;;;;;;;15.67;15.67;;;;;22.99;67.02;100836.94;5008591;28;44863;-83
2022/09/01 07:43:13;;;;;;;;;17.00;15.33;;;;;22.97;66.96;100820.69;5008666;28;45454;-83
2022/09/01 07:45:48;;;;;;;;;16.33;16.33;;;;;22.97;66.91;100802.59;4996017;28;45555;-82
2022/09/01 07:48:19;;;;;;;;;18.33;18.00;;;;;23.25;66.60;100828.75;4994588;28;44821;-83
2022/09/01 07:50:50;;;;;;;;;15.67;15.67;;;;;23.34;65.93;100822.06;5005639;28;44837;-82
2022/09/01 07:53:23;;;;;;;;;16.67;16.33;;;;;23.27;65.36;100810.56;5005096;28;45992;-83
2022/09/01 07:55:54;;;;;;;;;13.00;13.00;;;;;23.42;65.78;100819.06;5001798;28;45367;-82
2022/09/01 07:58:24;;;;;;;;;17.33;17.33;;;;;23.46;64.94;100820.72;4988433;28;45792;-80
2022/09/01 08:00:52;;;;;;;;;19.00;16.67;;;;;23.37;64.92;100813.84;4976442;28;45422;-82
2022/09/01 08:03:25;;;;;;;;;16.00;16.00;;;;;23.34;65.36;100806.66;4987597;28;45319;-82
2022/09/01 08:05:56;;;;;;;;;16.00;15.33;;;;;23.46;65.09;100810.75;5005184;28;45266;-82
2022/09/01 08:08:23;;;;;;;;;13.67;13.33;;;;;23.55;64.90;100817.66;5011118;28;45547;-83
2022/09/01 08:10:48;;;;;;;;;18.67;18.67;;;;;23.63;64.91;100807.41;5021191;28;44937;-83
2022/09/01 08:13:15;;;;;;;;;18.67;18.67;;;;;23.70;64.11;100808.03;5026538;28;47643;-84
2022/09/01 08:15:41;;;;;;;;;13.67;13.67;;;;;23.80;63.89;100809.47;4993754;28;45494;-84
2022/09/01 08:18:10;;;;;;;;;24.00;20.00;;;;;23.82;63.06;100823.00;5026039;28;44792;-83
2022/09/01 08:20:40;;;;;;;;;17.67;17.33;;;;;23.71;63.68;100816.13;5028087;28;45415;-83
2022/09/01 08:23:06;;;;;;;;;8.67;8.00;;;;;23.76;64.05;100819.53;5028306;28;45419;-83
2022/09/01 08:25:39;;;;;;;;;16.33;14.00;;;;;23.79;63.72;100825.81;5012030;28;45462;-85
2022/09/01 08:28:08;;;;;;;;;18.00;16.00;;;;;23.77;63.36;100817.72;5008251;28;45219;-83
2022/09/01 08:30:38;;;;;;;;;12.33;12.33;;;;;23.89;63.38;100824.50;5004409;28;44839;-83
2022/09/01 08:33:04;;;;;;;;;20.33;18.33;;;;;23.87;62.88;100808.25;4993182;28;45693;-83
2022/09/01 08:35:30;;;;;;;;;17.33;16.67;;;;;23.89;62.99;100798.22;4995710;28;45385;-83
2022/09/01 08:37:57;;;;;;;;;17.33;17.33;;;;;24.22;62.33;100834.94;5008478;28;45426;-82
2022/09/01 08:40:50;;;;;;;;;15.33;15.00;;;;;24.32;62.23;100839.06;5023061;28;45444;-82
2022/09/01 08:46:41;;;;;;;;;21.00;19.67;;;;;24.70;60.09;100833.84;5014345;28;45862;-83
2022/09/01 08:49:18;;;;;;;;;16.33;16.33;;;;;24.63;59.90;100821.50;5011730;28;45386;-81
2022/09/01 08:52:12;;;;;;;;;18.00;17.00;;;;;24.77;60.36;100829.06;5030599;28;44893;-83
2022/09/01 08:54:46;;;;;;;;;14.00;14.00;;;;;24.98;59.72;100828.09;5011516;28;47656;-84
2022/09/01 08:57:21;;;;;;;;;17.00;17.00;;;;;25.10;58.12;100832.97;5006603;28;45334;-82
2022/09/01 08:59:47;;;;;;;;;19.00;19.00;;;;;25.05;58.43;100824.16;5012079;28;44806;-84
2022/09/01 09:02:29;;;;;;;;;20.00;19.33;;;;;25.09;57.70;100820.34;5029262;28;45158;-84
2022/09/01 09:05:30;;;;;;;;;;;;;;;;;;;;;
2022/09/01 09:08:36;;;;;;;;;19.00;18.00;;;;;25.47;58.28;100830.44;5015149;28;73433;-84
2022/09/01 09:11:28;;;;;;;;;17.67;17.00;;;;;25.67;57.05;100822.25;5004954;28;45378;-84
2022/09/01 09:13:56;;;;;;;;;17.33;17.33;;;;;25.83;55.15;100836.00;5018352;28;45469;-84
2022/09/01 09:16:34;;;;;;;;;17.33;16.00;;;;;25.77;54.44;100835.41;5024832;28;45245;-85
2022/09/01 09:19:16;;;;;;;;;20.33;19.00;;;;;25.56;54.83;100835.47;5019367;28;45327;-84
2022/09/01 09:21:57;;;;;;;;;20.33;19.67;;;;;25.49;56.33;100828.53;5014317;28;45634;-84
2022/09/01 09:27:27;;;;;;;;;23.67;21.67;;;;;25.58;54.99;100833.56;5025500;28;45693;-83
2022/09/01 09:30:00;;;;;;;;;20.33;19.67;;;;;25.50;54.06;100833.03;5008868;28;44891;-83
2022/09/01 09:32:49;;;;;;;;;18.00;18.00;;;;;25.42;54.76;100827.94;5024435;28;45496;-82
2022/09/01 09:36:02;;;;;;;;;20.33;20.33;;;;;25.51;55.43;100823.91;5002907;28;44949;-84
2022/09/01 09:38:39;;;;;;;;;21.00;21.00;;;;;25.44;54.91;100789.75;5026104;28;46879;-84
2022/09/01 09:41:23;;;;;;;;;18.67;18.67;;;;;25.47;54.66;100775.97;5008707;28;45465;-84
2022/09/01 09:44:02;;;;;;;;;21.00;21.00;;;;;25.75;53.64;100817.31;5001369;28;44834;-84
2022/09/01 09:47:13;;;;;;;;;19.67;19.00;;;;;25.85;53.25;100817.72;5000248;28;44903;-83
2022/09/01 09:49:53;;;;;;;;;19.67;18.33;;;;;25.85;53.72;100814.13;5027360;28;47157;-82
2022/09/01 09:52:22;;;;;;;;;18.67;18.67;;;;;25.75;53.63;100811.88;5008637;28;45217;-82
2022/09/01 09:55:26;;;;;;;;;;;;;;;;;;;;;
2022/09/01 09:58:11;;;;;;;;;18.00;17.00;;;;;25.66;53.69;100776.88;5017997;28;66575;-84
2022/09/01 10:00:38;;;;;;;;;18.33;18.00;;;;;25.99;52.85;100811.63;5006913;28;47336;-83
2022/09/01 10:03:11;;;;;;;;;20.33;20.00;;;;;25.97;52.82;100807.22;5011842;28;45018;-82
2022/09/01 10:05:42;;;;;;;;;20.67;19.00;;;;;26.00;52.96;100812.53;5015329;28;44806;-83
2022/09/01 10:08:43;;;;;;;;;22.33;22.00;;;;;26.01;51.80;100809.72;5010607;28;45387;-83
2022/09/01 10:11:40;;;;;;;;;24.00;21.33;;;;;25.96;52.10;100797.31;5009720;28;48304;-83
2022/09/01 10:14:28;;;;;;;;;19.00;19.00;;;;;26.12;51.01;100815.53;5008570;28;45580;-85
2022/09/01 10:17:03;;;;;;;;;20.67;19.00;;;;;26.11;51.25;100811.03;5005310;28;45453;-84
2022/09/01 10:19:40;;;;;;;;;20.33;20.00;;;;;26.05;50.88;100818.63;4982824;28;45150;-83
2022/09/01 10:22:12;;;;;;;;;20.33;18.67;;;;;26.02;51.89;100800.59;5010562;28;45630;-84
2022/09/01 10:28:25;;;;;;;;;20.33;19.33;;;;;26.15;52.04;100817.22;5010527;28;44643;-83
2022/09/01 10:31:01;;;;;;;;;19.33;17.00;;;;;26.12;51.40;100787.41;5007547;28;45627;-84
2022/09/01 10:33:27;;;;;;;;;21.67;19.67;;;;;26.26;51.27;100795.78;5007580;28;45553;-83
2022/09/01 10:36:00;;;;;;;;;21.00;20.67;;;;;26.18;50.58;100778.00;5008963;28;44822;-83
2022/09/01 10:38:50;;;;;;;;;20.33;20.33;;;;;26.33;50.91;100807.25;4999959;28;44936;-81
2022/09/01 10:41:51;;;;;;;;;21.00;19.67;;;;;26.33;50.84;100801.78;5006139;28;45550;-83
2022/09/01 10:44:40;;;;;;;;;20.33;17.33;;;;;26.46;50.90;100794.75;5019951;28;47037;-83
2022/09/01 10:47:23;;;;;;;;;17.00;17.00;;;;;26.53;50.59;100796.19;5009011;28;44819;-83
2022/09/01 10:49:49;;;;;;;;;17.33;17.33;;;;;26.74;50.31;100798.78;5009916;28;44866;-83
2022/09/01 10:52:45;;;;;;;;;18.33;18.33;;;;;26.88;50.07;100800.78;5010606;28;44944;-82
2022/09/01 10:55:36;;;;;;;;;15.67;14.33;;;;;26.98;48.31;100802.06;4995621;28;46756;-83
2022/09/01 10:58:32;;;;;;;;;18.00;14.33;;;;;26.85;47.53;100796.38;5007575;28;45376;-82
2022/09/01 11:01:01;;;;;;;;;14.33;13.33;;;;;26.73;47.79;100794.31;5008455;28;45284;-82
2022/09/01 11:03:39;;;;;;;;;13.33;13.33;;;;;26.73;47.36;100797.03;5008918;28;45415;-81
2022/09/01 11:06:07;;;;;;;;;15.67;15.33;;;;;26.79;47.50;100798.56;5007062;28;46679;-82
2022/09/01 11:08:32;;;;;;;;;17.33;15.33;;;;;26.82;47.76;100793.81;5030577;28;45443;-82
2022/09/01 11:11:25;;;;;;;;;16.33;15.33;;;;;26.83;46.65;100803.78;5014452;28;45509;-82
2022/09/01 11:13:57;;;;;;;;;14.33;14.33;;;;;26.80;47.21;100787.53;5025996;28;45546;-79
2022/09/01 11:16:30;;;;;;;;;14.33;14.33;;;;;26.78;47.35;100783.16;5007467;28;47357;-79
2022/09/01 11:19:30;;;;;;;;;13.00;12.00;;;;;26.89;47.06;100789.81;5033989;28;45504;-80
2022/09/01 11:22:33;;;;;;;;;14.33;12.67;;;;;26.88;47.25;100784.41;5032115;28;45363;-79
2022/09/01 11:25:31;;;;;;;;;15.33;14.00;;;;;26.91;46.90;100789.72;4979284;28;44808;-81
2022/09/01 11:28:01;;;;;;;;;16.33;16.00;;;;;26.91;47.55;100779.69;4964027;28;45423;-81
2022/09/01 11:30:32;;;;;;;;;14.33;12.67;;;;;27.08;47.66;100775.16;4969923;28;45717;-79
2022/09/01 11:33:30;;;;;;;;;12.67;11.67;;;;;27.27;46.79;100775.97;4972985;28;44920;-82
2022/09/01 11:36:05;;;;;;;;;14.00;14.00;;;;;27.34;46.54;100771.91;4987813;28;45468;-80
2022/09/01 11:38:58;;;;;;;;;14.67;14.67;;;;;27.45;46.21;100763.13;4990339;28;45414;-79
2022/09/01 11:41:38;;;;;;;;;6.67;6.67;;;;;27.62;44.10;100770.38;4952127;28;45708;-79
2022/09/01 11:44:12;;;;;;;;;12.00;10.67;;;;;27.64;45.09;100764.81;4971007;28;44997;-81
2022/09/01 11:46:42;;;;;;;;;11.67;10.00;;;;;27.72;45.72;100766.13;4970157;28;45511;-80
2022/09/01 11:49:26;;;;;;;;;12.67;11.00;;;;;27.99;44.83;100757.34;4994583;28;45460;-81
2022/09/01 11:51:52;;;;;;;;;9.00;9.00;;;;;28.23;44.50;100759.59;4984623;28;45564;-82